x

Yucatan Basin - 120 Nm Ese Of Cozumel, Mx (42056) Wave Buoy

2:50am - Sun 19th Apr 2015 All times are CDT. -5 hours from GMT.

  • Sig Wave height 4.3ft
  • Swell Direction
  • Peak Period 5s
  • Average Period 4s
  • Wind
    18mph, 22mph gusts
  • Sea Temp 82°f
  • Air Temp 80°f
  • Sea Pressure 1011.2mb
  •  Yucatan Basin - 120 Nm Ese Of Cozumel, Mx
  •  Yucatan Basin - 120 Nm Ese Of Cozumel, Mx

More Historic Weather Station data

Upgrade to MSW Pro to gain access to the past 30 days of data for over 8000 Wavebouys and Weather Stations around the globe.

Join Pro

Comparision Forecast

View Surf forecast
   
Sun 04/19 2:50am 4.5ft 5s 4s 18 22 mph 1011.2mb 82f 80f
1:50am 3.5ft 5s 4s 20 22 mph 1011.4mb 82f 81f
12:50am 4ft 5s 4s 20 22 mph 1012.2mb 82f 81f
Sat 04/18 11:50pm 3.5ft 6s 4s 20 22 mph 1012.9mb 82f 81f
10:50pm 3.5ft 5s 4s 18 20 mph 1013.7mb 82f 81f
9:50pm 3.5ft 6s 4s 16 20 mph 1013.9mb 82f 81f
8:50pm 3.5ft 6s 4s 16 20 mph 1013.2mb 82f 81f
7:50pm 3.5ft 6s 4s 16 20 mph 1012.4mb 82f 81f
6:50pm 3.5ft 5s 4s 16 20 mph 1012mb 82f 81f
5:50pm 3.5ft 5s 4s 16 18 mph 1011.6mb 82f 82f
4:50pm 4ft 5s 5s 16 18 mph 1011.5mb 82f 81f
3:50pm 3.5ft 6s 4s 16 18 mph 1011.9mb 82f 82f
2:50pm 3.5ft 5s 4s 16 18 mph 1012.2mb 82f 82f
1:50pm 4ft 5s 4s 16 18 mph 1012.8mb 82f 82f
12:50pm 4ft 5s 4s 18 22 mph 1013.3mb 82f 82f
11:50am 3.5ft 6s 4s 20 22 mph 1013.7mb 82f 81f
10:50am 3.5ft 5s 4s 20 22 mph 1014.1mb 82f 81f
9:50am 3.5ft 5s 4s 20 22 mph 1014.1mb 82f 81f
8:50am 3.5ft 5s 4s 20 22 mph 1014mb 82f 81f
7:50am 3.5ft 8s 4s 18 20 mph 1014mb 82f 81f
6:50am 3.5ft 6s 4s 18 20 mph 1013.5mb 82f 81f
5:50am 3ft 5s 4s 16 20 mph 1013.2mb 82f 81f
4:50am 3ft 5s 4s 16 18 mph 1012.9mb 82f 81f
3:50am 3ft 5s 4s 16 18 mph 1012.3mb 82f 81f
2:50am 3ft 5s 4s 16
mph
1012.8mb 82f 81f
1:50am 3ft 5s 4s 16 18 mph 1013.8mb 82f 81f
12:50am 3.5ft 4s 4s 16 18 mph 1014mb 82f 81f
Fri 04/17 11:50pm 3ft 4s 4s 16 18 mph 1014.5mb 82f 81f
10:50pm 3.5ft 5s 4s 16 20 mph 1014.9mb 82f 81f
9:50pm 3ft 5s 4s 18 20 mph 1014.6mb 82f 81f
8:50pm 3ft 5s 4s 16 18 mph 1014.1mb 82f 81f
7:50pm 3ft 4s 4s 16 20 mph 1013.4mb 82f 81f
6:50pm 3ft 5s 4s 18 20 mph 1013.1mb 82f 81f
5:50pm 3ft 5s 4s 16 18 mph 1013.2mb 82f 82f
4:50pm 2.5ft 4s 4s 13 16 mph 1013.4mb 82f 81f
3:50pm 3ft 5s 4s 13 16 mph 1013.7mb 82f 82f
2:50pm 3ft 6s 4s 13 16 mph 1014.2mb 82f 81f
1:50pm 3ft 8s 4s 16 18 mph 1014.9mb 82f 81f
12:50pm 3ft 5s 4s 16 18 mph 1015.3mb 82f 82f
11:50am 3ft 5s 4s 18 20 mph 1015.8mb 82f 81f
10:50am 3ft 5s 4s 16 20 mph 1016.2mb 82f 81f
9:50am 2.5ft 5s 4s 16 18 mph 1016.2mb 82f 81f
8:50am 3ft 5s 4s 13 18 mph 1015.8mb 82f 81f
7:50am 3ft 5s 4s 16 18 mph 1015.2mb 82f 81f
6:50am 3ft 5s 4s 13 16 mph 1014.9mb 82f 81f
5:50am 3ft 5s 4s 13 16 mph 1014.3mb 82f 80f
4:50am 2.5ft 5s 4s 11 16 mph 1014mb 82f 81f
3:50am 3.5ft 5s 4s 13 18 mph 1014mb 82f 81f
2:50am 3ft 5s 4s 16 18 mph 1014.1mb 82f 81f
1:50am 3.5ft 5s 4s 16 18 mph 1014.3mb 82f 81f
12:50am 3.5ft 4s 4s 16 18 mph 1015.3mb 82f 81f
Thu 04/16 11:50pm 3.5ft 5s 4s 16 18 mph 1016mb 82f 81f
10:50pm 4ft 5s 4s 16 20 mph 1016.2mb 82f 81f
9:50pm 3.5ft 5s 4s 16 18 mph 1015.9mb 82f 81f
8:50pm 3.5ft 6s 4s 18 22 mph 1015.3mb 82f 80f
7:50pm 3.5ft 8s 4s 18 20 mph 1014.7mb 82f 82f
6:50pm 3.5ft 5s 4s 16 18 mph 1014.2mb 82f 82f
5:50pm 3ft 8s 4s 16 18 mph 1013.9mb 82f 82f
4:50pm 3.5ft 5s 5s 16 18 mph 1013.9mb 82f 82f
3:50pm 3.5ft 5s 5s 11 13 mph 1014.4mb 82f 82f
2:50pm 3.5ft 8s 5s 13 16 mph 1014.4mb 82f 82f
1:50pm 3.5ft 8s 5s 11 13 mph 1015.5mb 82f 81f
12:50pm 3.5ft 9s 5s 13 16 mph 1016mb 82f 81f
11:50am 3.5ft 8s 5s 13 16 mph 1016.7mb 82f 81f
10:50am 3.5ft 9s 5s 13 16 mph 1016.8mb 82f 81f
9:50am 3.5ft 8s 5s 13 16 mph 1016.6mb 82f 81f
8:50am 3.5ft 8s 5s 13 16 mph 1016.2mb 82f 81f
7:50am 3.5ft 8s 5s 13 16 mph 1015.6mb 82f 81f
6:50am 3.5ft 8s 5s 11 16 mph 1015.1mb 82f 81f
5:50am 3.5ft 8s 5s 11 13 mph 1014.6mb 82f 81f
4:50am 3.5ft 9s 5s 11 13 mph 1013.9mb 82f 81f
3:50am 3.5ft 8s 5s 11 13 mph 1013.6mb 82f 80f
2:50am 3.5ft 5s 5s 13 16 mph 1013.6mb 82f 80f
1:50am 3.5ft 8s 5s 13 16 mph 1014.5mb 82f 81f
12:50am 3.5ft 9s 5s 16 18 mph 1015.4mb 82f 81f
Wed 04/15 11:50pm 3.5ft 6s 5s 16 18 mph 1016mb 82f 81f
10:50pm 3.5ft 5s 5s 16 18 mph 1016.2mb 82f 81f
9:50pm 3.5ft 5s 5s 16 20 mph 1015.9mb 82f 81f
8:50pm 3.5ft 6s 5s 18 20 mph 1015.2mb 82f 81f
7:50pm 3.5ft 5s 5s 16 18 mph 1014.9mb 82f 81f
6:50pm 3.5ft 9s 5s 16 18 mph 1014.3mb 82f 81f
5:50pm 3.5ft 8s 5s 16 18 mph 1014.1mb 82f 82f
4:50pm 3.5ft 8s 5s 13 16 mph 1014.3mb 82f 82f
3:50pm 3.5ft 5s 5s 11 13 mph 1015.1mb 82f 82f
2:50pm 3.5ft 8s 5s 11 16 mph 1015.3mb 82f 81f
12:50pm 3.5ft 9s 5s 13 16 mph 1016.6mb 82f 81f
11:50am 3.5ft 5s 5s 13 16 mph 1017mb 82f 81f
10:50am 3.5ft 5s 5s 13 16 mph 1017.1mb 82f 81f
9:50am 3.5ft 9s 5s 11 13 mph 1017mb 82f 81f
8:50am 3ft 6s 5s 11 16 mph 1016.4mb 82f 81f